Time;durP1;ratioP1;P1;durP2;ratioP2;P2;SDS_P1;SDS_P2;PMS_P1;PMS_P2;Temp;Humidity;BMP_temperature;BMP_pressure;BME280_temperature;BME280_humidity;BME280_pressure;Samples;Min_cycle;Max_cycle;Signal;HPM_P1;HPM_P2
2023/09/09 00:00:39;;;;;;;17.60;15.80;;;;;;;;;;5137219;27;20804;-60
2023/09/09 00:03:08;;;;;;;18.37;16.63;;;;;;;;;;5137374;27;20430;-60
2023/09/09 00:05:35;;;;;;;17.17;15.40;;;;;;;;;;5137027;27;20474;-59
2023/09/09 00:08:02;;;;;;;17.17;15.50;;;;;;;;;;5137001;27;20433;-60
2023/09/09 00:10:30;;;;;;;16.10;14.50;;;;;;;;;;5136778;27;20488;-60
2023/09/09 00:12:58;;;;;;;16.10;14.47;;;;;;;;;;5136854;27;20475;-60
2023/09/09 00:15:25;;;;;;;17.10;15.10;;;;;;;;;;5136694;27;20775;-60
2023/09/09 00:17:52;;;;;;;16.57;14.83;;;;;;;;;;5136579;27;20933;-60
2023/09/09 00:20:29;;;;;;;17.03;13.27;;;;;;;;;;5136732;27;20852;-59
2023/09/09 00:22:56;;;;;;;15.20;13.70;;;;;;;;;;5136898;27;20765;-59
2023/09/09 00:25:23;;;;;;;16.90;15.20;;;;;;;;;;5136445;27;20473;-59
2023/09/09 00:27:51;;;;;;;15.07;13.57;;;;;;;;;;5136488;27;20444;-59
2023/09/09 00:30:18;;;;;;;15.70;14.30;;;;;;;;;;5136082;27;20996;-60
2023/09/09 00:32:45;;;;;;;14.93;13.43;;;;;;;;;;5136353;27;20437;-60
2023/09/09 00:35:12;;;;;;;15.47;14.07;;;;;;;;;;5136750;27;20436;-60
2023/09/09 00:37:41;;;;;;;14.70;13.30;;;;;;;;;;5136315;27;20433;-60
2023/09/09 00:40:09;;;;;;;14.50;12.97;;;;;;;;;;5136012;27;20525;-60
2023/09/09 00:42:36;;;;;;;14.37;12.97;;;;;;;;;;5136198;27;20790;-60
2023/09/09 00:45:03;;;;;;;14.60;13.10;;;;;;;;;;5136291;27;20445;-60
2023/09/09 00:47:30;;;;;;;14.77;13.23;;;;;;;;;;5135988;27;20437;-60
2023/09/09 00:49:58;;;;;;;14.97;13.47;;;;;;;;;;5136554;27;20525;-60
2023/09/09 00:52:26;;;;;;;15.10;13.10;;;;;;;;;;5136218;27;20463;-60
2023/09/09 00:54:54;;;;;;;13.80;12.30;;;;;;;;;;5136016;27;20480;-60
2023/09/09 00:57:21;;;;;;;15.43;13.90;;;;;;;;;;5135438;27;20458;-60
2023/09/09 00:59:49;;;;;;;14.60;13.30;;;;;;;;;;5135611;27;20437;-60
2023/09/09 01:02:16;;;;;;;13.20;12.00;;;;;;;;;;5135459;27;20526;-60
2023/09/09 01:04:43;;;;;;;14.73;13.23;;;;;;;;;;5135048;27;20468;-60
2023/09/09 01:07:10;;;;;;;14.50;12.93;;;;;;;;;;5135613;27;20552;-60
2023/09/09 01:09:37;;;;;;;16.73;13.33;;;;;;;;;;5135803;27;20441;-60
2023/09/09 01:12:11;;;;;;;14.40;13.00;;;;;;;;;;5135516;27;20501;-60
2023/09/09 01:14:38;;;;;;;13.10;11.90;;;;;;;;;;5135893;27;20433;-60
2023/09/09 01:17:06;;;;;;;13.57;12.37;;;;;;;;;;5135518;27;20441;-60
2023/09/09 01:19:34;;;;;;;13.57;12.37;;;;;;;;;;5135420;27;20470;-60
2023/09/09 01:22:06;;;;;;;12.80;11.60;;;;;;;;;;5135658;27;20443;-60
2023/09/09 01:24:38;;;;;;;14.77;12.07;;;;;;;;;;5135788;27;20799;-61
2023/09/09 01:27:05;;;;;;;14.97;13.43;;;;;;;;;;5134880;27;20546;-60
2023/09/09 01:29:33;;;;;;;14.60;13.30;;;;;;;;;;5135224;27;20519;-61
2023/09/09 01:32:00;;;;;;;15.27;13.50;;;;;;;;;;5134826;27;20534;-61
2023/09/09 01:34:27;;;;;;;14.60;13.03;;;;;;;;;;5134909;27;20523;-60
2023/09/09 01:36:54;;;;;;;13.40;12.10;;;;;;;;;;5135475;27;20433;-61
2023/09/09 01:39:21;;;;;;;14.60;12.50;;;;;;;;;;5135544;27;20534;-60
2023/09/09 01:41:50;;;;;;;18.60;13.73;;;;;;;;;;5134943;27;20445;-60
2023/09/09 01:44:17;;;;;;;14.83;12.50;;;;;;;;;;5135391;27;20432;-60
2023/09/09 01:46:44;;;;;;;15.93;12.40;;;;;;;;;;5134630;27;20901;-60
2023/09/09 01:49:12;;;;;;;14.03;12.63;;;;;;;;;;5135756;27;20480;-60
2023/09/09 01:51:39;;;;;;;14.83;12.93;;;;;;;;;;5135419;27;20434;-60
2023/09/09 01:54:06;;;;;;;15.53;13.83;;;;;;;;;;5135264;27;20468;-60
2023/09/09 01:56:33;;;;;;;14.53;12.87;;;;;;;;;;5135351;27;20440;-60
2023/09/09 01:59:02;;;;;;;14.33;12.80;;;;;;;;;;5135110;27;20522;-60
2023/09/09 02:01:29;;;;;;;14.03;12.63;;;;;;;;;;5134870;27;20440;-60
2023/09/09 02:03:56;;;;;;;14.73;13.30;;;;;;;;;;5134888;27;20493;-60
2023/09/09 02:06:23;;;;;;;15.10;13.50;;;;;;;;;;5134572;27;20560;-60
2023/09/09 02:08:50;;;;;;;15.00;13.50;;;;;;;;;;5134051;27;20925;-60
2023/09/09 02:11:18;;;;;;;13.40;12.10;;;;;;;;;;5134409;27;20516;-60
2023/09/09 02:13:45;;;;;;;14.03;12.47;;;;;;;;;;5134285;27;20509;-60
2023/09/09 02:16:13;;;;;;;14.17;12.70;;;;;;;;;;5133793;27;20441;-60
2023/09/09 02:18:40;;;;;;;14.30;12.90;;;;;;;;;;5134351;27;20439;-60
2023/09/09 02:21:08;;;;;;;14.10;12.70;;;;;;;;;;5134063;27;20439;-60
2023/09/09 02:23:35;;;;;;;14.10;12.80;;;;;;;;;;5134403;27;20540;-60
2023/09/09 02:26:02;;;;;;;14.50;13.17;;;;;;;;;;5134147;27;20482;-60
2023/09/09 02:28:30;;;;;;;15.30;13.67;;;;;;;;;;5134179;27;20558;-60
2023/09/09 02:30:59;;;;;;;15.70;13.23;;;;;;;;;;5134167;27;20443;-60
2023/09/09 02:33:28;;;;;;;15.57;13.97;;;;;;;;;;5133855;27;20441;-60
2023/09/09 02:35:55;;;;;;;14.57;13.10;;;;;;;;;;5134386;27;20434;-59
2023/09/09 02:38:22;;;;;;;16.10;14.43;;;;;;;;;;5134297;27;20516;-60
2023/09/09 02:40:50;;;;;;;16.10;14.10;;;;;;;;;;5134127;27;20470;-60
2023/09/09 02:43:17;;;;;;;18.80;14.03;;;;;;;;;;5133997;27;20856;-60
2023/09/09 02:45:44;;;;;;;14.40;12.93;;;;;;;;;;5134466;27;20464;-60
2023/09/09 02:48:11;;;;;;;14.77;12.93;;;;;;;;;;5133566;27;20442;-60
2023/09/09 02:50:40;;;;;;;15.30;13.77;;;;;;;;;;5133550;27;20436;-60
2023/09/09 02:53:07;;;;;;;15.80;14.20;;;;;;;;;;5133556;27;20445;-59
2023/09/09 02:55:34;;;;;;;15.73;14.03;;;;;;;;;;5133515;27;20430;-60
2023/09/09 02:58:01;;;;;;;16.37;14.10;;;;;;;;;;5133294;27;21001;-60
2023/09/09 03:00:28;;;;;;;15.77;14.07;;;;;;;;;;5133926;27;20527;-60
2023/09/09 03:02:56;;;;;;;16.13;14.43;;;;;;;;;;5133514;27;20446;-60
2023/09/09 03:05:23;;;;;;;15.77;14.30;;;;;;;;;;5133715;27;20476;-60
2023/09/09 03:07:52;;;;;;;17.87;15.00;;;;;;;;;;5133161;27;20568;-60
2023/09/09 03:10:19;;;;;;;17.10;15.40;;;;;;;;;;5133471;28;20432;-60
2023/09/09 03:12:46;;;;;;;18.20;16.33;;;;;;;;;;5133052;28;20439;-60
2023/09/09 03:15:13;;;;;;;18.00;15.73;;;;;;;;;;5133149;28;20481;-60
2023/09/09 03:17:40;;;;;;;18.03;16.37;;;;;;;;;;5133109;28;20909;-61
2023/09/09 03:20:08;;;;;;;18.23;16.40;;;;;;;;;;5133573;28;20784;-60
2023/09/09 03:22:36;;;;;;;16.73;15.00;;;;;;;;;;5133166;28;20492;-60
2023/09/09 03:25:04;;;;;;;20.40;18.40;;;;;;;;;;5132995;28;20950;-60
2023/09/09 03:27:32;;;;;;;20.33;18.17;;;;;;;;;;5135120;27;20472;-60
2023/09/09 03:29:59;;;;;;;22.90;18.87;;;;;;;;;;5137435;27;20444;-61
2023/09/09 03:32:27;;;;;;;20.50;18.60;;;;;;;;;;5137741;27;20825;-61
2023/09/09 03:34:54;;;;;;;21.23;19.13;;;;;;;;;;5137534;27;20458;-60
2023/09/09 03:37:21;;;;;;;20.90;18.80;;;;;;;;;;5137466;27;20439;-61
2023/09/09 03:39:48;;;;;;;22.63;20.43;;;;;;;;;;5137417;27;20783;-61
2023/09/09 03:42:17;;;;;;;22.00;19.90;;;;;;;;;;5137454;27;20435;-61
2023/09/09 03:44:44;;;;;;;21.90;19.60;;;;;;;;;;5137209;27;20443;-60
2023/09/09 03:47:11;;;;;;;21.07;18.97;;;;;;;;;;5137360;27;20967;-60
2023/09/09 03:49:38;;;;;;;22.37;20.10;;;;;;;;;;5137722;27;20518;-60
2023/09/09 03:52:06;;;;;;;22.53;20.20;;;;;;;;;;5137432;27;20439;-60
2023/09/09 03:54:33;;;;;;;21.83;19.77;;;;;;;;;;5136006;27;20463;-61
2023/09/09 03:57:00;;;;;;;22.47;20.30;;;;;;;;;;5136232;27;20860;-61
2023/09/09 03:59:31;;;;;;;23.17;20.97;;;;;;;;;;5136252;27;20842;-61
2023/09/09 04:01:58;;;;;;;23.67;21.40;;;;;;;;;;5136444;27;20428;-61
2023/09/09 04:04:25;;;;;;;23.53;21.33;;;;;;;;;;5136507;27;20534;-60
2023/09/09 04:06:53;;;;;;;26.53;21.13;;;;;;;;;;5136292;27;20486;-60
2023/09/09 04:09:26;;;;;;;22.40;20.20;;;;;;;;;;5135935;27;20494;-61
2023/09/09 04:11:53;;;;;;;25.07;22.03;;;;;;;;;;5136650;27;20523;-61
2023/09/09 04:14:20;;;;;;;27.60;23.10;;;;;;;;;;5136676;27;20431;-61
2023/09/09 04:16:49;;;;;;;23.47;21.03;;;;;;;;;;5136256;27;20437;-61
2023/09/09 04:19:16;;;;;;;22.60;20.50;;;;;;;;;;5136411;27;20744;-61
2023/09/09 04:21:43;;;;;;;24.50;20.53;;;;;;;;;;5136520;27;20430;-60
2023/09/09 04:24:10;;;;;;;23.30;20.70;;;;;;;;;;5136489;27;20440;-61
2023/09/09 04:26:37;;;;;;;25.23;22.20;;;;;;;;;;5136087;27;20473;-60
2023/09/09 04:29:04;;;;;;;20.93;18.87;;;;;;;;;;5136012;27;20936;-61
2023/09/09 04:31:32;;;;;;;25.40;21.10;;;;;;;;;;5136037;27;20790;-61
2023/09/09 04:34:00;;;;;;;22.67;20.50;;;;;;;;;;5135830;27;20446;-60
2023/09/09 04:36:27;;;;;;;21.80;19.50;;;;;;;;;;5135686;27;20922;-61
2023/09/09 04:38:55;;;;;;;22.07;19.97;;;;;;;;;;5135496;27;20658;-61
2023/09/09 04:41:22;;;;;;;23.63;20.63;;;;;;;;;;5136413;27;20446;-61
2023/09/09 04:43:49;;;;;;;22.70;20.43;;;;;;;;;;5136138;27;20440;-60
2023/09/09 04:46:16;;;;;;;22.17;19.80;;;;;;;;;;5136020;27;20441;-60
2023/09/09 04:48:44;;;;;;;22.93;20.20;;;;;;;;;;5135820;27;20902;-60
2023/09/09 04:51:12;;;;;;;23.60;20.47;;;;;;;;;;5136311;27;20427;-61
2023/09/09 04:53:39;;;;;;;22.27;19.87;;;;;;;;;;5135682;27;20474;-61
2023/09/09 04:56:06;;;;;;;23.53;20.40;;;;;;;;;;5136198;27;20827;-60
2023/09/09 04:58:34;;;;;;;24.43;21.63;;;;;;;;;;5135916;27;20529;-61
2023/09/09 05:01:01;;;;;;;22.50;19.30;;;;;;;;;;5135457;27;20493;-61
2023/09/09 05:03:28;;;;;;;25.73;23.13;;;;;;;;;;5136412;27;20493;-61
2023/09/09 05:05:55;;;;;;;21.87;19.07;;;;;;;;;;5135964;27;20480;-61
2023/09/09 05:08:24;;;;;;;22.23;19.93;;;;;;;;;;5135225;27;20495;-60
2023/09/09 05:10:51;;;;;;;22.13;19.73;;;;;;;;;;5135554;27;20444;-60
2023/09/09 05:13:18;;;;;;;23.60;21.30;;;;;;;;;;5135500;27;20525;-61
2023/09/09 05:15:45;;;;;;;22.97;20.60;;;;;;;;;;5135716;27;20545;-60
2023/09/09 05:18:12;;;;;;;22.90;20.60;;;;;;;;;;5135640;27;20443;-60
2023/09/09 05:20:40;;;;;;;20.80;18.70;;;;;;;;;;5135232;27;20436;-60
2023/09/09 05:23:07;;;;;;;22.93;20.53;;;;;;;;;;5134955;27;20540;-60
2023/09/09 05:25:35;;;;;;;22.17;20.00;;;;;;;;;;5134948;27;20921;-60
2023/09/09 05:28:03;;;;;;;22.33;19.87;;;;;;;;;;5135055;27;20567;-60
2023/09/09 05:30:30;;;;;;;24.37;18.37;;;;;;;;;;5135137;27;20442;-60
2023/09/09 05:32:57;;;;;;;21.13;19.00;;;;;;;;;;5135159;27;20442;-60
2023/09/09 05:35:24;;;;;;;20.23;18.23;;;;;;;;;;5134996;27;20434;-60
2023/09/09 05:37:51;;;;;;;22.53;19.80;;;;;;;;;;5135153;27;20439;-60
2023/09/09 05:40:18;;;;;;;20.93;18.73;;;;;;;;;;5134609;27;20440;-60
2023/09/09 05:42:47;;;;;;;21.83;19.67;;;;;;;;;;5134951;27;20871;-60
2023/09/09 05:45:14;;;;;;;23.43;21.13;;;;;;;;;;5134802;27;20444;-60
2023/09/09 05:47:42;;;;;;;21.50;19.20;;;;;;;;;;5134987;27;20478;-60
2023/09/09 05:50:10;;;;;;;21.67;19.57;;;;;;;;;;5134547;27;20452;-60
2023/09/09 05:52:37;;;;;;;20.50;18.30;;;;;;;;;;5134956;27;20473;-60
2023/09/09 05:55:04;;;;;;;20.37;18.30;;;;;;;;;;5134671;27;20468;-60
2023/09/09 05:57:34;;;;;;;20.13;18.20;;;;;;;;;;5134973;27;20519;-60
2023/09/09 06:00:04;;;;;;;20.10;17.80;;;;;;;;;;5134706;27;20929;-60
2023/09/09 06:02:31;;;;;;;22.23;19.07;;;;;;;;;;5134595;27;20424;-60
2023/09/09 06:04:59;;;;;;;21.27;18.83;;;;;;;;;;5134354;27;20527;-60
2023/09/09 06:07:26;;;;;;;23.73;20.30;;;;;;;;;;5134355;27;20476;-60
2023/09/09 06:09:53;;;;;;;22.70;20.40;;;;;;;;;;5134508;27;20530;-60
2023/09/09 06:12:20;;;;;;;24.73;19.13;;;;;;;;;;5134355;27;20532;-60
2023/09/09 06:14:47;;;;;;;20.90;18.70;;;;;;;;;;5134406;27;20458;-60
2023/09/09 06:17:16;;;;;;;19.17;17.23;;;;;;;;;;5134262;27;21013;-60
2023/09/09 06:19:43;;;;;;;22.10;19.97;;;;;;;;;;5134126;27;20444;-60
2023/09/09 06:22:10;;;;;;;22.13;19.13;;;;;;;;;;5134434;27;20528;-60
2023/09/09 06:24:38;;;;;;;22.93;20.73;;;;;;;;;;5134722;27;20547;-60
2023/09/09 06:27:05;;;;;;;20.17;18.00;;;;;;;;;;5134183;27;20491;-60
2023/09/09 06:29:32;;;;;;;21.93;17.90;;;;;;;;;;5134246;27;20513;-60
2023/09/09 06:31:59;;;;;;;19.50;17.40;;;;;;;;;;5134427;27;20541;-60
2023/09/09 06:34:28;;;;;;;17.57;15.73;;;;;;;;;;5134090;27;20535;-60
2023/09/09 06:36:55;;;;;;;18.73;16.83;;;;;;;;;;5134383;27;20452;-60
2023/09/09 06:39:22;;;;;;;19.47;17.67;;;;;;;;;;5133962;27;20521;-60
2023/09/09 06:41:49;;;;;;;18.97;17.00;;;;;;;;;;5133906;27;20527;-60
2023/09/09 06:44:17;;;;;;;19.93;17.83;;;;;;;;;;5134030;27;20462;-59
2023/09/09 06:46:44;;;;;;;18.33;16.27;;;;;;;;;;5133940;27;20439;-60
2023/09/09 06:49:11;;;;;;;19.43;15.60;;;;;;;;;;5133691;27;20481;-60
2023/09/09 06:51:39;;;;;;;17.40;15.77;;;;;;;;;;5133475;27;20436;-60
2023/09/09 06:54:07;;;;;;;33.20;17.33;;;;;;;;;;5133568;27;20565;-60
2023/09/09 06:56:34;;;;;;;24.30;15.40;;;;;;;;;;5133037;27;20437;-59
2023/09/09 06:59:01;;;;;;;15.87;14.30;;;;;;;;;;5133980;27;20544;-60
2023/09/09 07:01:28;;;;;;;22.80;14.10;;;;;;;;;;5133158;27;20453;-60
2023/09/09 07:03:55;;;;;;;22.90;19.00;;;;;;;;;;5133239;27;20476;-60
2023/09/09 07:06:23;;;;;;;17.77;16.17;;;;;;;;;;5117732;27;20458;-60
2023/09/09 07:08:53;;;;;;;27.33;24.57;;;;;;;;;;5112301;28;20470;-59
2023/09/09 07:11:20;;;;;;;19.37;17.50;;;;;;;;;;5113125;28;20511;-59
2023/09/09 07:13:48;;;;;;;15.50;14.10;;;;;;;;;;5113250;28;20525;-59
2023/09/09 07:16:16;;;;;;;16.40;14.90;;;;;;;;;;5113549;28;20448;-59
2023/09/09 07:18:43;;;;;;;18.20;16.20;;;;;;;;;;5111799;28;20965;-59
2023/09/09 07:21:10;;;;;;;16.47;14.83;;;;;;;;;;5112984;28;20446;-59
2023/09/09 07:23:37;;;;;;;14.50;13.00;;;;;;;;;;5112812;28;20867;-59
2023/09/09 07:26:06;;;;;;;14.90;13.50;;;;;;;;;;5113317;28;20517;-60
2023/09/09 07:28:33;;;;;;;16.00;14.37;;;;;;;;;;5113023;28;20806;-59
2023/09/09 07:31:02;;;;;;;14.87;13.43;;;;;;;;;;5112553;28;20433;-60
2023/09/09 07:33:30;;;;;;;19.97;18.00;;;;;;;;;;5112755;28;20561;-60
2023/09/09 07:35:57;;;;;;;17.60;15.80;;;;;;;;;;5113088;28;20435;-60
2023/09/09 07:38:24;;;;;;;14.73;13.23;;;;;;;;;;5112438;28;20442;-60
2023/09/09 07:40:55;;;;;;;16.40;13.43;;;;;;;;;;5112951;28;20843;-60
2023/09/09 07:43:24;;;;;;;15.60;13.53;;;;;;;;;;5112700;28;20513;-60
2023/09/09 07:45:51;;;;;;;16.17;13.90;;;;;;;;;;5113399;28;20426;-60
2023/09/09 07:48:20;;;;;;;16.53;14.90;;;;;;;;;;5125288;28;20473;-61
2023/09/09 07:50:51;;;;;;;14.57;13.07;;;;;;;;;;5133376;28;20831;-60
2023/09/09 07:53:18;;;;;;;14.90;12.83;;;;;;;;;;5132611;27;20437;-60
2023/09/09 07:55:48;;;;;;;15.00;13.50;;;;;;;;;;5133553;28;20457;-60
2023/09/09 07:58:15;;;;;;;14.20;12.80;;;;;;;;;;5132969;28;20442;-61
2023/09/09 08:00:44;;;;;;;17.13;12.97;;;;;;;;;;5133366;28;20440;-60
2023/09/09 08:03:12;;;;;;;13.30;11.67;;;;;;;;;;5133006;28;20520;-60
2023/09/09 08:05:39;;;;;;;13.43;12.00;;;;;;;;;;5133479;28;20518;-60
2023/09/09 08:08:06;;;;;;;13.60;11.37;;;;;;;;;;5133398;28;20509;-60
2023/09/09 08:10:34;;;;;;;11.77;9.83;;;;;;;;;;5132915;28;20516;-60
2023/09/09 08:13:02;;;;;;;14.30;10.73;;;;;;;;;;5132928;27;20812;-60
2023/09/09 08:15:29;;;;;;;12.83;9.83;;;;;;;;;;5135959;27;20517;-60
2023/09/09 08:17:57;;;;;;;10.43;9.53;;;;;;;;;;5136457;27;20450;-60
2023/09/09 08:20:25;;;;;;;12.87;9.63;;;;;;;;;;5136475;27;20457;-60
2023/09/09 08:22:52;;;;;;;10.20;9.30;;;;;;;;;;5136654;27;20525;-60
2023/09/09 08:25:19;;;;;;;13.70;11.20;;;;;;;;;;5136428;27;20436;-60
2023/09/09 08:27:47;;;;;;;14.20;9.93;;;;;;;;;;5136490;27;20529;-60
2023/09/09 08:30:15;;;;;;;11.30;10.17;;;;;;;;;;5136223;27;20443;-60
2023/09/09 08:32:43;;;;;;;12.27;9.93;;;;;;;;;;5135950;27;20437;-60
2023/09/09 08:35:11;;;;;;;11.60;9.60;;;;;;;;;;5136346;27;20556;-60
2023/09/09 08:37:38;;;;;;;10.23;9.23;;;;;;;;;;5135998;27;20439;-60
2023/09/09 08:40:08;;;;;;;11.00;9.90;;;;;;;;;;5136258;27;20437;-60
2023/09/09 08:42:41;;;;;;;13.83;10.53;;;;;;;;;;5136208;27;20439;-60
2023/09/09 08:45:14;;;;;;;13.80;10.43;;;;;;;;;;5136211;27;20440;-60
2023/09/09 08:47:42;;;;;;;13.37;10.63;;;;;;;;;;5135975;27;20787;-60
2023/09/09 08:50:11;;;;;;;14.23;10.47;;;;;;;;;;5136349;27;20431;-60
2023/09/09 08:52:39;;;;;;;13.77;10.10;;;;;;;;;;5136112;27;20429;-60
2023/09/09 08:55:06;;;;;;;11.73;10.60;;;;;;;;;;5135423;27;20496;-60
2023/09/09 08:57:33;;;;;;;10.93;9.77;;;;;;;;;;5135819;27;20804;-60
2023/09/09 09:00:03;;;;;;;13.37;11.47;;;;;;;;;;5135358;27;20838;-60
2023/09/09 09:02:30;;;;;;;12.63;11.07;;;;;;;;;;5136074;27;20437;-60
2023/09/09 09:04:58;;;;;;;15.33;11.17;;;;;;;;;;5135664;27;20480;-60
2023/09/09 09:07:27;;;;;;;15.03;11.90;;;;;;;;;;5135216;27;20441;-60
2023/09/09 09:09:55;;;;;;;13.70;12.20;;;;;;;;;;5135564;27;20483;-60
2023/09/09 09:12:23;;;;;;;12.10;11.03;;;;;;;;;;5135748;27;20425;-60
2023/09/09 09:14:50;;;;;;;13.53;12.13;;;;;;;;;;5135606;27;20441;-60
2023/09/09 09:17:17;;;;;;;14.60;13.17;;;;;;;;;;5135703;27;20515;-60
2023/09/09 09:19:45;;;;;;;13.57;12.27;;;;;;;;;;5135150;27;20455;-60
2023/09/09 09:22:13;;;;;;;17.20;12.50;;;;;;;;;;5135486;27;20442;-60
2023/09/09 09:24:45;;;;;;;13.83;12.37;;;;;;;;;;5134518;27;20452;-60
2023/09/09 09:27:13;;;;;;;15.63;13.33;;;;;;;;;;5135333;27;20524;-60
2023/09/09 09:29:40;;;;;;;15.47;12.13;;;;;;;;;;5135153;27;20960;-61
2023/09/09 09:32:08;;;;;;;11.50;10.50;;;;;;;;;;5135659;27;20433;-61
2023/09/09 09:34:36;;;;;;;13.33;11.77;;;;;;;;;;5135284;27;20447;-60
2023/09/09 09:37:04;;;;;;;18.17;11.53;;;;;;;;;;5135227;27;20434;-61
2023/09/09 09:39:35;;;;;;;12.93;11.70;;;;;;;;;;5134669;27;20532;-60
2023/09/09 09:42:04;;;;;;;13.43;12.03;;;;;;;;;;5135333;27;20420;-61
2023/09/09 09:44:31;;;;;;;12.23;11.00;;;;;;;;;;5135099;27;20540;-60
2023/09/09 09:47:03;;;;;;;11.23;10.23;;;;;;;;;;5134719;27;20910;-60
2023/09/09 09:49:36;;;;;;;17.30;10.70;;;;;;;;;;5134446;27;20531;-60
2023/09/09 09:52:04;;;;;;;12.83;10.70;;;;;;;;;;5134589;27;20430;-61
2023/09/09 09:54:32;;;;;;;14.30;9.70;;;;;;;;;;5134400;27;20465;-61
2023/09/09 09:57:01;;;;;;;10.43;9.23;;;;;;;;;;5134983;27;20814;-61
2023/09/09 09:59:31;;;;;;;11.37;10.37;;;;;;;;;;5134409;27;20443;-61
2023/09/09 10:01:58;;;;;;;11.00;9.83;;;;;;;;;;5134916;27;20463;-60
2023/09/09 10:04:27;;;;;;;16.60;10.17;;;;;;;;;;5134404;27;20441;-60
2023/09/09 10:06:56;;;;;;;14.13;9.27;;;;;;;;;;5134485;27;20440;-61
2023/09/09 10:09:26;;;;;;;10.40;8.80;;;;;;;;;;5134655;27;20466;-61
2023/09/09 10:11:55;;;;;;;10.80;9.70;;;;;;;;;;5134923;27;20449;-61
2023/09/09 10:14:25;;;;;;;10.80;9.80;;;;;;;;;;5135168;27;20452;-61
2023/09/09 10:16:54;;;;;;;10.43;9.33;;;;;;;;;;5132980;27;20929;-61
2023/09/09 10:19:22;;;;;;;15.70;10.10;;;;;;;;;;5113424;28;20445;-61
2023/09/09 10:21:50;;;;;;;9.70;8.40;;;;;;;;;;5113988;28;20438;-61
2023/09/09 10:24:17;;;;;;;16.60;10.00;;;;;;;;;;5114252;28;20451;-61
2023/09/09 10:26:44;;;;;;;11.10;9.07;;;;;;;;;;5113412;28;20524;-61
2023/09/09 10:29:12;;;;;;;10.60;8.80;;;;;;;;;;5113130;28;20481;-63
2023/09/09 10:31:41;;;;;;;10.63;9.23;;;;;;;;;;5113690;28;20531;-61
2023/09/09 10:34:11;;;;;;;9.60;8.23;;;;;;;;;;5113510;28;20445;-61
2023/09/09 10:36:39;;;;;;;21.13;11.77;;;;;;;;;;5112888;28;20437;-61
2023/09/09 10:39:07;;;;;;;10.67;9.67;;;;;;;;;;5113225;28;20441;-61
2023/09/09 10:41:35;;;;;;;9.43;8.53;;;;;;;;;;5113628;28;20435;-60
2023/09/09 10:44:03;;;;;;;8.53;7.80;;;;;;;;;;5113568;28;20523;-61
2023/09/09 10:46:34;;;;;;;9.67;8.70;;;;;;;;;;5113383;28;20452;-61
2023/09/09 10:49:02;;;;;;;14.53;9.47;;;;;;;;;;5132221;27;20450;-61
2023/09/09 10:51:31;;;;;;;9.20;8.37;;;;;;;;;;5134103;27;20448;-61
2023/09/09 10:54:08;;;;;;;10.23;8.17;;;;;;;;;;5133827;27;20575;-60
2023/09/09 10:56:36;;;;;;;9.77;8.37;;;;;;;;;;5133818;27;20430;-61
2023/09/09 10:59:16;;;;;;;11.43;8.40;;;;;;;;;;5133966;27;20457;-61
2023/09/09 11:01:43;;;;;;;9.83;8.13;;;;;;;;;;5133593;27;20433;-61
2023/09/09 11:04:19;;;;;;;10.60;7.50;;;;;;;;;;5133832;27;20498;-60
2023/09/09 11:07:00;;;;;;;9.40;8.40;;;;;;;;;;5133729;27;20418;-61
2023/09/09 11:09:32;;;;;;;8.63;7.73;;;;;;;;;;5133589;27;21015;-60
2023/09/09 11:11:59;;;;;;;12.23;9.23;;;;;;;;;;5133586;28;20465;-61
2023/09/09 11:14:31;;;;;;;9.20;8.30;;;;;;;;;;5133504;28;20447;-60
2023/09/09 11:16:58;;;;;;;8.37;7.57;;;;;;;;;;5133214;28;20884;-61
2023/09/09 11:19:26;;;;;;;9.47;8.57;;;;;;;;;;5132900;28;20714;-61
2023/09/09 11:21:54;;;;;;;9.07;8.17;;;;;;;;;;5133028;28;20519;-61
2023/09/09 11:24:23;;;;;;;9.80;8.87;;;;;;;;;;5133236;28;20906;-61
2023/09/09 11:26:51;;;;;;;9.63;8.63;;;;;;;;;;5133003;28;20440;-61
2023/09/09 11:29:19;;;;;;;10.70;9.53;;;;;;;;;;5132871;28;20450;-61
2023/09/09 11:31:46;;;;;;;13.40;9.80;;;;;;;;;;5133063;28;20440;-61
2023/09/09 11:34:14;;;;;;;10.23;9.27;;;;;;;;;;5133219;28;20438;-61
2023/09/09 11:36:43;;;;;;;10.17;9.27;;;;;;;;;;5133103;28;20435;-61
2023/09/09 11:39:11;;;;;;;15.13;9.90;;;;;;;;;;5132961;28;20936;-61
2023/09/09 11:41:39;;;;;;;10.00;9.10;;;;;;;;;;5133305;28;20478;-61
2023/09/09 11:44:07;;;;;;;10.53;9.43;;;;;;;;;;5133029;28;20944;-61
2023/09/09 11:46:37;;;;;;;12.57;8.77;;;;;;;;;;5133347;28;20528;-61
2023/09/09 11:49:04;;;;;;;11.70;10.33;;;;;;;;;;5135901;27;20447;-61
2023/09/09 11:51:32;;;;;;;9.93;8.90;;;;;;;;;;5137205;27;20437;-62
2023/09/09 11:53:59;;;;;;;13.73;8.50;;;;;;;;;;5136749;27;20431;-61
2023/09/09 11:56:26;;;;;;;12.33;7.50;;;;;;;;;;5137086;27;20430;-62
2023/09/09 11:58:55;;;;;;;15.50;8.50;;;;;;;;;;5136627;27;20520;-61
2023/09/09 12:01:23;;;;;;;10.17;8.10;;;;;;;;;;5136602;27;20452;-61
2023/09/09 12:03:50;;;;;;;16.37;8.77;;;;;;;;;;5137032;27;20520;-64
2023/09/09 12:06:19;;;;;;;8.00;7.17;;;;;;;;;;5137125;27;20408;-61
2023/09/09 12:08:47;;;;;;;13.53;9.60;;;;;;;;;;5137218;27;20529;-61
2023/09/09 12:11:16;;;;;;;11.13;8.07;;;;;;;;;;5136573;27;20731;-61
2023/09/09 12:13:44;;;;;;;11.97;8.43;;;;;;;;;;5137365;27;20437;-60
2023/09/09 12:16:12;;;;;;;8.80;7.43;;;;;;;;;;5136649;27;20539;-60
2023/09/09 12:18:39;;;;;;;10.77;8.03;;;;;;;;;;5136732;27;20494;-61
2023/09/09 12:21:07;;;;;;;13.70;8.20;;;;;;;;;;5136354;27;20445;-61
2023/09/09 12:23:35;;;;;;;11.10;8.70;;;;;;;;;;5136904;27;20441;-59
2023/09/09 12:26:12;;;;;;;9.80;7.73;;;;;;;;;;5136429;27;20581;-60
2023/09/09 12:28:39;;;;;;;16.97;9.13;;;;;;;;;;5136499;27;20476;-60
2023/09/09 12:31:07;;;;;;;9.90;8.17;;;;;;;;;;5136607;27;20472;-60
2023/09/09 12:33:42;;;;;;;14.73;9.10;;;;;;;;;;5136959;27;20535;-60
2023/09/09 12:36:16;;;;;;;10.40;8.50;;;;;;;;;;5136776;27;20433;-60
2023/09/09 12:38:44;;;;;;;13.33;9.77;;;;;;;;;;5136824;27;20420;-60
2023/09/09 12:41:12;;;;;;;12.67;8.50;;;;;;;;;;5136333;27;20516;-60
2023/09/09 12:43:39;;;;;;;17.27;9.40;;;;;;;;;;5136367;27;20508;-60
2023/09/09 12:46:07;;;;;;;12.73;9.77;;;;;;;;;;5135966;27;21023;-60
2023/09/09 12:51:30;;;;;;;10.37;9.10;;;;;;;;;;5090468;28;20935;-60
2023/09/09 12:54:00;;;;;;;10.07;8.83;;;;;;;;;;5090219;28;20504;-60
2023/09/09 12:56:28;;;;;;;11.20;9.10;;;;;;;;;;5090236;28;20432;-60
2023/09/09 12:58:55;;;;;;;14.90;8.77;;;;;;;;;;5089773;28;20536;-61
2023/09/09 13:01:22;;;;;;;11.37;9.43;;;;;;;;;;5089976;28;20422;-60
2023/09/09 13:03:50;;;;;;;12.80;8.60;;;;;;;;;;5090406;28;20406;-60
2023/09/09 13:06:17;;;;;;;13.33;9.23;;;;;;;;;;5090161;28;21141;-61
2023/09/09 13:08:45;;;;;;;11.47;8.53;;;;;;;;;;5090164;28;20428;-60
2023/09/09 13:11:13;;;;;;;16.90;9.30;;;;;;;;;;5089497;28;20479;-61
2023/09/09 13:13:40;;;;;;;9.50;8.53;;;;;;;;;;5089683;28;20847;-60
2023/09/09 13:16:08;;;;;;;15.00;9.70;;;;;;;;;;5090047;28;20470;-61
2023/09/09 13:18:35;;;;;;;11.73;9.10;;;;;;;;;;5089896;28;20451;-61
2023/09/09 13:21:02;;;;;;;13.93;10.80;;;;;;;;;;5090079;28;20436;-61
2023/09/09 13:23:30;;;;;;;13.97;8.90;;;;;;;;;;5089883;28;20446;-61
2023/09/09 13:25:58;;;;;;;9.57;8.47;;;;;;;;;;5090264;28;20450;-61
2023/09/09 13:28:25;;;;;;;16.87;8.70;;;;;;;;;;5089375;28;20408;-60
2023/09/09 13:30:53;;;;;;;10.40;8.43;;;;;;;;;;5089891;28;20557;-60
2023/09/09 13:33:20;;;;;;;11.30;8.40;;;;;;;;;;5089561;28;20422;-60
2023/09/09 13:35:47;;;;;;;13.67;8.37;;;;;;;;;;5089702;28;20509;-60
2023/09/09 13:38:14;;;;;;;16.10;8.20;;;;;;;;;;5089882;28;20410;-60
2023/09/09 13:40:41;;;;;;;13.73;8.30;;;;;;;;;;5089757;28;20508;-60
2023/09/09 13:43:10;;;;;;;14.70;8.20;;;;;;;;;;5089296;28;20494;-60
2023/09/09 13:45:37;;;;;;;15.30;9.83;;;;;;;;;;5089916;28;20402;-60
2023/09/09 13:48:05;;;;;;;10.23;8.27;;;;;;;;;;5089699;28;20420;-59
2023/09/09 13:50:32;;;;;;;15.53;8.43;;;;;;;;;;5089407;28;20805;-60
2023/09/09 13:52:59;;;;;;;14.60;8.80;;;;;;;;;;5089018;28;20444;-60
2023/09/09 13:55:26;;;;;;;12.10;8.00;;;;;;;;;;5089398;28;20941;-60
2023/09/09 13:57:54;;;;;;;11.23;7.33;;;;;;;;;;5088798;28;20526;-60
2023/09/09 14:00:22;;;;;;;14.83;7.10;;;;;;;;;;5088707;28;20581;-60
2023/09/09 14:02:49;;;;;;;7.97;6.50;;;;;;;;;;5075677;28;20857;-60
2023/09/09 14:05:17;;;;;;;11.90;6.43;;;;;;;;;;5075536;28;20411;-60
2023/09/09 14:07:44;;;;;;;10.73;6.13;;;;;;;;;;5075118;28;20448;-60
2023/09/09 14:10:11;;;;;;;13.57;6.70;;;;;;;;;;5075322;28;20556;-60
2023/09/09 14:12:41;;;;;;;11.93;6.37;;;;;;;;;;5075201;28;20571;-60
2023/09/09 14:15:09;;;;;;;10.00;6.20;;;;;;;;;;5075094;28;20423;-60
2023/09/09 14:17:37;;;;;;;7.90;6.20;;;;;;;;;;5075512;28;20790;-60
2023/09/09 14:20:05;;;;;;;10.90;6.90;;;;;;;;;;5074958;28;20510;-60
2023/09/09 14:22:32;;;;;;;9.40;6.57;;;;;;;;;;5075517;28;20415;-60
2023/09/09 14:24:59;;;;;;;11.83;6.87;;;;;;;;;;5075469;28;20411;-60
2023/09/09 14:27:26;;;;;;;12.40;7.77;;;;;;;;;;5074491;28;20434;-60